RYR21WJ EIDW-EGCC
Flight info
| Callsign | RYR21WJ |
|---|---|
| Flight time | 0h 39m |
| Altitude | 21000 |
| Route | BOFUM3J BOFUM Q37 MALUD |
| Aircraft | B738/M-SDE2E3FGHIRWXY/LB1 |
Departure
| Time | 2026-05-07 15:54 |
|---|---|
| Airport | Dublin Airport (EIDW) |
Arrival
| Time | 2026-05-07 16:33 |
|---|---|
| Airport | Manchester Airport (EGCC) |
| Time | Latitude | Longitude | Altitude | Speed | Heading |
|---|---|---|---|---|---|
| 2026-05-07 15:40 | 53.43015 | -6.25074 | 210 ft | 0 kts | 5° |
| 2026-05-07 15:46 | 53.42993 | -6.25077 | 214 ft | 4 kts | 5° |
| 2026-05-07 15:46 | 53.42969 | -6.25080 | 218 ft | 4 kts | 338° |
| 2026-05-07 15:46 | 53.42956 | -6.25054 | 214 ft | 4 kts | 277° |
| 2026-05-07 15:47 | 53.42956 | -6.25055 | 214 ft | 4 kts | 275° |
| 2026-05-07 15:47 | 53.42958 | -6.25101 | 212 ft | 3 kts | 275° |
| 2026-05-07 15:47 | 53.42958 | -6.25109 | 214 ft | 0 kts | 275° |
| 2026-05-07 15:49 | 53.42958 | -6.25113 | 214 ft | 1 kts | 275° |
| 2026-05-07 15:49 | 53.42959 | -6.25156 | 210 ft | 8 kts | 273° |
| 2026-05-07 15:49 | 53.42952 | -6.25280 | 215 ft | 13 kts | 248° |
| 2026-05-07 15:50 | 53.42967 | -6.25371 | 219 ft | 8 kts | 340° |
| 2026-05-07 15:50 | 53.43049 | -6.25428 | 220 ft | 17 kts | 336° |
| 2026-05-07 15:50 | 53.43180 | -6.25521 | 215 ft | 23 kts | 337° |
| 2026-05-07 15:50 | 53.43309 | -6.25618 | 218 ft | 15 kts | 337° |
| 2026-05-07 15:51 | 53.43385 | -6.25645 | 219 ft | 10 kts | 21° |
| 2026-05-07 15:51 | 53.43406 | -6.25545 | 210 ft | 10 kts | 94° |
| 2026-05-07 15:51 | 53.43398 | -6.25406 | 215 ft | 14 kts | 94° |
| 2026-05-07 15:51 | 53.43388 | -6.25209 | 218 ft | 20 kts | 96° |
| 2026-05-07 15:52 | 53.43374 | -6.24951 | 215 ft | 24 kts | 96° |
| 2026-05-07 15:52 | 53.43360 | -6.24707 | 218 ft | 11 kts | 95° |
| 2026-05-07 15:52 | 53.43361 | -6.24602 | 219 ft | 9 kts | 71° |
| 2026-05-07 15:52 | 53.43411 | -6.24555 | 213 ft | 9 kts | 4° |
| 2026-05-07 15:53 | 53.43470 | -6.24548 | 221 ft | 8 kts | 4° |
| 2026-05-07 15:53 | 53.43520 | -6.24584 | 214 ft | 8 kts | 300° |
| 2026-05-07 15:53 | 53.43529 | -6.24676 | 220 ft | 8 kts | 275° |
| 2026-05-07 15:53 | 53.43543 | -6.24938 | 211 ft | 54 kts | 275° |
| 2026-05-07 15:54 | 53.43602 | -6.26007 | 218 ft | 124 kts | 275° |
| 2026-05-07 15:54 | 53.43705 | -6.27721 | 404 ft | 160 kts | 269° |
| 2026-05-07 15:54 | 53.43809 | -6.29511 | 1284 ft | 154 kts | 272° |
| 2026-05-07 15:54 | 53.44381 | -6.31105 | 1959 ft | 174 kts | 323° |
| 2026-05-07 15:55 | 53.45524 | -6.32141 | 2366 ft | 200 kts | 311° |
| 2026-05-07 15:55 | 53.46253 | -6.34162 | 2737 ft | 209 kts | 286° |
| 2026-05-07 15:55 | 53.47095 | -6.36213 | 3268 ft | 226 kts | 322° |
| 2026-05-07 15:55 | 53.48648 | -6.36874 | 3951 ft | 236 kts | 2° |
| 2026-05-07 15:56 | 53.50289 | -6.36619 | 4767 ft | 240 kts | 5° |
| 2026-05-07 15:56 | 53.51852 | -6.35721 | 5626 ft | 244 kts | 39° |
| 2026-05-07 15:56 | 53.52781 | -6.33402 | 6374 ft | 245 kts | 79° |
| 2026-05-07 15:56 | 53.52798 | -6.30480 | 6714 ft | 263 kts | 98° |
| 2026-05-07 15:57 | 53.52651 | -6.27286 | 7138 ft | 281 kts | 96° |
| 2026-05-07 15:57 | 53.52545 | -6.23960 | 7884 ft | 287 kts | 95° |
| 2026-05-07 15:57 | 53.52464 | -6.20584 | 8564 ft | 287 kts | 95° |
| 2026-05-07 15:57 | 53.52401 | -6.17267 | 8925 ft | 286 kts | 95° |
| 2026-05-07 15:58 | 53.52339 | -6.13866 | 8933 ft | 295 kts | 95° |
| 2026-05-07 15:58 | 53.52280 | -6.10420 | 8940 ft | 294 kts | 95° |
| 2026-05-07 15:58 | 53.52201 | -6.06997 | 8953 ft | 293 kts | 99° |
| 2026-05-07 15:58 | 53.51788 | -6.03645 | 9430 ft | 294 kts | 108° |
| 2026-05-07 15:59 | 53.51261 | -6.00323 | 10264 ft | 296 kts | 108° |
| 2026-05-07 15:59 | 53.50727 | -5.96844 | 10548 ft | 319 kts | 108° |
| 2026-05-07 15:59 | 53.50176 | -5.93124 | 10908 ft | 336 kts | 107° |
| 2026-05-07 15:59 | 53.49611 | -5.89226 | 11605 ft | 341 kts | 107° |
| 2026-05-07 16:00 | 53.49085 | -5.85317 | 12378 ft | 347 kts | 101° |
| 2026-05-07 16:00 | 53.49069 | -5.82609 | 12855 ft | 355 kts | 84° |
| 2026-05-07 16:00 | 53.49614 | -5.78536 | 13699 ft | 360 kts | 78° |
| 2026-05-07 16:00 | 53.50227 | -5.74432 | 14419 ft | 364 kts | 78° |
| 2026-05-07 16:01 | 53.50841 | -5.70278 | 15145 ft | 369 kts | 78° |
| 2026-05-07 16:01 | 53.51449 | -5.66075 | 15947 ft | 371 kts | 78° |
| 2026-05-07 16:01 | 53.52047 | -5.61867 | 16843 ft | 370 kts | 78° |
| 2026-05-07 16:01 | 53.52636 | -5.57667 | 17784 ft | 368 kts | 78° |
| 2026-05-07 16:02 | 53.53218 | -5.53490 | 18685 ft | 366 kts | 78° |
| 2026-05-07 16:02 | 53.53732 | -5.49297 | 19439 ft | 365 kts | 87° |
| 2026-05-07 16:02 | 53.53744 | -5.45056 | 20215 ft | 362 kts | 95° |
| 2026-05-07 16:02 | 53.53598 | -5.40695 | 20745 ft | 363 kts | 96° |
| 2026-05-07 16:03 | 53.53448 | -5.36494 | 20988 ft | 363 kts | 96° |
| 2026-05-07 16:03 | 53.53310 | -5.32170 | 20966 ft | 363 kts | 95° |
| 2026-05-07 16:03 | 53.53193 | -5.27884 | 20976 ft | 361 kts | 95° |
| 2026-05-07 16:03 | 53.53089 | -5.23669 | 20980 ft | 361 kts | 95° |
| 2026-05-07 16:04 | 53.52987 | -5.19461 | 20979 ft | 360 kts | 95° |
| 2026-05-07 16:04 | 53.52882 | -5.15246 | 20976 ft | 360 kts | 95° |
| 2026-05-07 16:04 | 53.52758 | -5.11045 | 20980 ft | 360 kts | 95° |
| 2026-05-07 16:04 | 53.52620 | -5.06849 | 20981 ft | 360 kts | 96° |
| 2026-05-07 16:05 | 53.52479 | -5.02643 | 20982 ft | 360 kts | 96° |
| 2026-05-07 16:05 | 53.52339 | -4.98442 | 20981 ft | 361 kts | 96° |
| 2026-05-07 16:05 | 53.52200 | -4.94232 | 20983 ft | 361 kts | 96° |
| 2026-05-07 16:05 | 53.52059 | -4.90012 | 20982 ft | 362 kts | 96° |
| 2026-05-07 16:06 | 53.51917 | -4.85800 | 20981 ft | 362 kts | 96° |
| 2026-05-07 16:06 | 53.51774 | -4.81568 | 20982 ft | 362 kts | 96° |
| 2026-05-07 16:06 | 53.51630 | -4.77344 | 20981 ft | 362 kts | 96° |
| 2026-05-07 16:06 | 53.51486 | -4.73119 | 20981 ft | 362 kts | 96° |
| 2026-05-07 16:07 | 53.51340 | -4.68865 | 20971 ft | 359 kts | 96° |
| 2026-05-07 16:07 | 53.51194 | -4.64686 | 20960 ft | 356 kts | 96° |
| 2026-05-07 16:07 | 53.51050 | -4.60556 | 20975 ft | 355 kts | 96° |
| 2026-05-07 16:07 | 53.50901 | -4.56380 | 20989 ft | 361 kts | 96° |
| 2026-05-07 16:08 | 53.50748 | -4.52157 | 20993 ft | 362 kts | 96° |
| 2026-05-07 16:08 | 53.50596 | -4.47953 | 20979 ft | 361 kts | 96° |
| 2026-05-07 16:08 | 53.50441 | -4.43700 | 20977 ft | 359 kts | 96° |
| 2026-05-07 16:08 | 53.50287 | -4.39515 | 20979 ft | 358 kts | 96° |
| 2026-05-07 16:09 | 53.50132 | -4.35351 | 20982 ft | 358 kts | 96° |
| 2026-05-07 16:09 | 53.49975 | -4.31174 | 20985 ft | 357 kts | 96° |
| 2026-05-07 16:09 | 53.49815 | -4.26948 | 20988 ft | 358 kts | 96° |
| 2026-05-07 16:09 | 53.49655 | -4.22784 | 20989 ft | 358 kts | 96° |
| 2026-05-07 16:10 | 53.49494 | -4.18611 | 20988 ft | 359 kts | 96° |
| 2026-05-07 16:10 | 53.49331 | -4.14423 | 20987 ft | 359 kts | 96° |
| 2026-05-07 16:10 | 53.49167 | -4.10253 | 20974 ft | 354 kts | 96° |
| 2026-05-07 16:10 | 53.49007 | -4.06175 | 20802 ft | 348 kts | 96° |
| 2026-05-07 16:11 | 53.48846 | -4.02145 | 20579 ft | 344 kts | 96° |
| 2026-05-07 16:11 | 53.48682 | -3.98143 | 20268 ft | 342 kts | 97° |
| 2026-05-07 16:11 | 53.48285 | -3.94234 | 19934 ft | 337 kts | 109° |
| 2026-05-07 16:11 | 53.47540 | -3.90529 | 19637 ft | 333 kts | 112° |
| 2026-05-07 16:12 | 53.46759 | -3.86877 | 19321 ft | 332 kts | 112° |
| 2026-05-07 16:12 | 53.45983 | -3.83240 | 19002 ft | 330 kts | 112° |
| 2026-05-07 16:12 | 53.45214 | -3.79602 | 18679 ft | 329 kts | 112° |
| 2026-05-07 16:12 | 53.44454 | -3.75968 | 18360 ft | 327 kts | 112° |
| 2026-05-07 16:13 | 53.43704 | -3.72364 | 17999 ft | 326 kts | 112° |
| 2026-05-07 16:13 | 53.42962 | -3.68786 | 17660 ft | 324 kts | 112° |
| 2026-05-07 16:13 | 53.42221 | -3.65226 | 17320 ft | 322 kts | 112° |
| 2026-05-07 16:13 | 53.41487 | -3.61685 | 17008 ft | 320 kts | 111° |
| 2026-05-07 16:14 | 53.41046 | -3.58027 | 16635 ft | 323 kts | 97° |
| 2026-05-07 16:14 | 53.40897 | -3.54286 | 16260 ft | 323 kts | 96° |
| 2026-05-07 16:14 | 53.40774 | -3.50472 | 15873 ft | 323 kts | 96° |
| 2026-05-07 16:14 | 53.40646 | -3.46715 | 15486 ft | 323 kts | 96° |
| 2026-05-07 16:15 | 53.40504 | -3.42961 | 15105 ft | 323 kts | 97° |
| 2026-05-07 16:15 | 53.40351 | -3.39203 | 14731 ft | 323 kts | 97° |
| 2026-05-07 16:15 | 53.40188 | -3.35399 | 14341 ft | 323 kts | 97° |
| 2026-05-07 16:15 | 53.40023 | -3.31642 | 13958 ft | 323 kts | 97° |
| 2026-05-07 16:16 | 53.39855 | -3.27892 | 13550 ft | 323 kts | 97° |
| 2026-05-07 16:16 | 53.39686 | -3.24138 | 13117 ft | 323 kts | 97° |
| 2026-05-07 16:16 | 53.39515 | -3.20400 | 12732 ft | 321 kts | 97° |
| 2026-05-07 16:16 | 53.39344 | -3.16680 | 12346 ft | 320 kts | 97° |
| 2026-05-07 16:17 | 53.39508 | -3.12952 | 11940 ft | 325 kts | 76° |
| 2026-05-07 16:17 | 53.40440 | -3.09512 | 11609 ft | 326 kts | 63° |
| 2026-05-07 16:17 | 53.41579 | -3.06224 | 11199 ft | 326 kts | 61° |
| 2026-05-07 16:17 | 53.42755 | -3.02947 | 10808 ft | 325 kts | 61° |
| 2026-05-07 16:18 | 53.43927 | -2.99676 | 10400 ft | 325 kts | 61° |
| 2026-05-07 16:18 | 53.45078 | -2.96424 | 10015 ft | 324 kts | 61° |
| 2026-05-07 16:18 | 53.46196 | -2.93234 | 9901 ft | 307 kts | 61° |
| 2026-05-07 16:18 | 53.47245 | -2.90223 | 9874 ft | 291 kts | 62° |
| 2026-05-07 16:19 | 53.48245 | -2.87333 | 9588 ft | 284 kts | 62° |
| 2026-05-07 16:19 | 53.49238 | -2.84454 | 9124 ft | 284 kts | 62° |
| 2026-05-07 16:19 | 53.50223 | -2.81590 | 8727 ft | 283 kts | 62° |
| 2026-05-07 16:19 | 53.51202 | -2.78745 | 8366 ft | 280 kts | 62° |
| 2026-05-07 16:20 | 53.52229 | -2.75911 | 7975 ft | 279 kts | 60° |
| 2026-05-07 16:20 | 53.53258 | -2.73156 | 7646 ft | 276 kts | 60° |
| 2026-05-07 16:20 | 53.53945 | -2.71332 | 7518 ft | 270 kts | 60° |
| 2026-05-07 16:20 | 53.55267 | -2.67839 | 7130 ft | 265 kts | 60° |
| 2026-05-07 16:21 | 53.56257 | -2.65233 | 6804 ft | 263 kts | 60° |
| 2026-05-07 16:21 | 53.56916 | -2.63497 | 6637 ft | 261 kts | 59° |
| 2026-05-07 16:21 | 53.57889 | -2.60935 | 6491 ft | 257 kts | 60° |
| 2026-05-07 16:21 | 53.58862 | -2.58373 | 6336 ft | 257 kts | 59° |
| 2026-05-07 16:22 | 53.59838 | -2.55787 | 6210 ft | 259 kts | 60° |
| 2026-05-07 16:22 | 53.60810 | -2.53207 | 6096 ft | 262 kts | 59° |
| 2026-05-07 16:22 | 53.61782 | -2.50619 | 5977 ft | 262 kts | 59° |
| 2026-05-07 16:22 | 53.62761 | -2.48017 | 5860 ft | 264 kts | 60° |
| 2026-05-07 16:23 | 53.63757 | -2.45375 | 5775 ft | 264 kts | 60° |
| 2026-05-07 16:23 | 53.64742 | -2.42752 | 5654 ft | 266 kts | 60° |
| 2026-05-07 16:23 | 53.65729 | -2.40137 | 5536 ft | 262 kts | 60° |
| 2026-05-07 16:23 | 53.66699 | -2.37576 | 5447 ft | 257 kts | 60° |
| 2026-05-07 16:24 | 53.67656 | -2.35055 | 5369 ft | 254 kts | 59° |
| 2026-05-07 16:24 | 53.68366 | -2.32377 | 5276 ft | 248 kts | 88° |
| 2026-05-07 16:24 | 53.68034 | -2.29641 | 5211 ft | 238 kts | 126° |
| 2026-05-07 16:24 | 53.66834 | -2.27811 | 5167 ft | 234 kts | 148° |
| 2026-05-07 16:25 | 53.65550 | -2.26061 | 5066 ft | 240 kts | 141° |
| 2026-05-07 16:25 | 53.64312 | -2.24162 | 4961 ft | 240 kts | 140° |
| 2026-05-07 16:25 | 53.63093 | -2.22267 | 4827 ft | 236 kts | 140° |
| 2026-05-07 16:25 | 53.61901 | -2.20409 | 4729 ft | 231 kts | 140° |
| 2026-05-07 16:26 | 53.60721 | -2.18573 | 4629 ft | 231 kts | 140° |
| 2026-05-07 16:26 | 53.59534 | -2.16730 | 4537 ft | 232 kts | 140° |
| 2026-05-07 16:26 | 53.58326 | -2.14855 | 4437 ft | 233 kts | 140° |
| 2026-05-07 16:26 | 53.57132 | -2.13003 | 4344 ft | 232 kts | 140° |
| 2026-05-07 16:27 | 53.55960 | -2.11186 | 4222 ft | 226 kts | 140° |
| 2026-05-07 16:27 | 53.54825 | -2.09425 | 4131 ft | 218 kts | 140° |
| 2026-05-07 16:27 | 53.53726 | -2.07723 | 4038 ft | 212 kts | 140° |
| 2026-05-07 16:27 | 53.52659 | -2.06074 | 3940 ft | 205 kts | 140° |
| 2026-05-07 16:28 | 53.51618 | -2.04466 | 3876 ft | 203 kts | 140° |
| 2026-05-07 16:28 | 53.50571 | -2.02853 | 3799 ft | 205 kts | 140° |
| 2026-05-07 16:28 | 53.49455 | -2.01339 | 3698 ft | 208 kts | 156° |
| 2026-05-07 16:28 | 53.48058 | -2.01124 | 3575 ft | 207 kts | 198° |
| 2026-05-07 16:29 | 53.46988 | -2.02602 | 3567 ft | 200 kts | 237° |
| 2026-05-07 16:29 | 53.46348 | -2.04585 | 3485 ft | 188 kts | 234° |
| 2026-05-07 16:29 | 53.45604 | -2.06336 | 3270 ft | 181 kts | 229° |
| 2026-05-07 16:29 | 53.44843 | -2.07993 | 3020 ft | 178 kts | 228° |
| 2026-05-07 16:30 | 53.44083 | -2.09592 | 2793 ft | 174 kts | 227° |
| 2026-05-07 16:30 | 53.43321 | -2.11165 | 2539 ft | 172 kts | 227° |
| 2026-05-07 16:30 | 53.42585 | -2.12679 | 2319 ft | 164 kts | 227° |
| 2026-05-07 16:30 | 53.41889 | -2.14109 | 2138 ft | 150 kts | 227° |
| 2026-05-07 16:31 | 53.41249 | -2.15421 | 1903 ft | 143 kts | 226° |
| 2026-05-07 16:31 | 53.40621 | -2.16710 | 1710 ft | 143 kts | 227° |
| 2026-05-07 16:31 | 53.39991 | -2.18006 | 1525 ft | 142 kts | 227° |
| 2026-05-07 16:31 | 53.39363 | -2.19297 | 1335 ft | 143 kts | 227° |
| 2026-05-07 16:32 | 53.38731 | -2.20599 | 1114 ft | 138 kts | 227° |
| 2026-05-07 16:32 | 53.38122 | -2.21849 | 902 ft | 141 kts | 228° |
| 2026-05-07 16:32 | 53.37489 | -2.23132 | 736 ft | 146 kts | 228° |
| 2026-05-07 16:32 | 53.36845 | -2.24464 | 527 ft | 148 kts | 230° |
| 2026-05-07 16:33 | 53.36200 | -2.25801 | 319 ft | 143 kts | 228° |
| 2026-05-07 16:33 | 53.35587 | -2.27051 | 259 ft | 133 kts | 228° |
| 2026-05-07 16:33 | 53.35148 | -2.27958 | 233 ft | 53 kts | 232° |
| 2026-05-07 16:33 | 53.34976 | -2.28392 | 232 ft | 36 kts | 255° |
| 2026-05-07 16:34 | 53.34937 | -2.28632 | 228 ft | 11 kts | 269° |
| 2026-05-07 16:34 | 53.34961 | -2.28732 | 229 ft | 9 kts | 317° |
| 2026-05-07 16:34 | 53.35009 | -2.28747 | 226 ft | 7 kts | 27° |
| 2026-05-07 16:34 | 53.35043 | -2.28687 | 228 ft | 7 kts | 50° |
| 2026-05-07 16:35 | 53.35075 | -2.28626 | 228 ft | 7 kts | 50° |
| 2026-05-07 16:35 | 53.35108 | -2.28559 | 227 ft | 9 kts | 51° |
| 2026-05-07 16:35 | 53.35159 | -2.28451 | 226 ft | 14 kts | 51° |
| 2026-05-07 16:35 | 53.35217 | -2.28331 | 231 ft | 13 kts | 50° |
| 2026-05-07 16:36 | 53.35275 | -2.28216 | 231 ft | 13 kts | 48° |
| 2026-05-07 16:36 | 53.35336 | -2.28113 | 236 ft | 12 kts | 45° |
| 2026-05-07 16:36 | 53.35398 | -2.28015 | 238 ft | 12 kts | 40° |
| 2026-05-07 16:36 | 53.35453 | -2.27912 | 237 ft | 12 kts | 69° |
| 2026-05-07 16:37 | 53.35466 | -2.27782 | 239 ft | 11 kts | 70° |
| 2026-05-07 16:37 | 53.35514 | -2.27674 | 238 ft | 11 kts | 50° |
| 2026-05-07 16:37 | 53.35564 | -2.27572 | 242 ft | 11 kts | 51° |
| 2026-05-07 16:37 | 53.35613 | -2.27472 | 244 ft | 11 kts | 51° |
| 2026-05-07 16:38 | 53.35663 | -2.27369 | 251 ft | 11 kts | 51° |
| 2026-05-07 16:38 | 53.35713 | -2.27265 | 254 ft | 13 kts | 51° |
| 2026-05-07 16:38 | 53.35774 | -2.27139 | 254 ft | 15 kts | 51° |
| 2026-05-07 16:38 | 53.35832 | -2.26994 | 255 ft | 14 kts | 59° |
| 2026-05-07 16:39 | 53.35880 | -2.26883 | 255 ft | 9 kts | 52° |
| 2026-05-07 16:39 | 53.35933 | -2.26837 | 254 ft | 9 kts | 353° |
| 2026-05-07 16:39 | 53.35987 | -2.26834 | 254 ft | 6 kts | 11° |
| 2026-05-07 16:39 | 53.36022 | -2.26859 | 254 ft | 5 kts | 314° |
| 2026-05-07 16:40 | 53.36029 | -2.26871 | 254 ft | 2 kts | 313° |
| 2026-05-07 16:40 | 53.36036 | -2.26884 | 254 ft | 1 kts | 313° |
| 2026-05-07 16:40 | 53.36037 | -2.26885 | 254 ft | 0 kts | 313° |